sensor_id;sensor_type;location;lat;lon;timestamp;P1;durP1;ratioP1;P2;durP2;ratioP2
66437;SDS011;54537;47.972;11.662;2024-03-22T00:01:47;33.35;;;15.82;;
66437;SDS011;54537;47.972;11.662;2024-03-22T00:04:14;31.00;;;16.23;;
66437;SDS011;54537;47.972;11.662;2024-03-22T00:06:41;36.72;;;17.10;;
66437;SDS011;54537;47.972;11.662;2024-03-22T00:09:07;32.90;;;16.63;;
66437;SDS011;54537;47.972;11.662;2024-03-22T00:11:33;33.92;;;16.77;;
66437;SDS011;54537;47.972;11.662;2024-03-22T00:13:59;36.07;;;17.13;;
66437;SDS011;54537;47.972;11.662;2024-03-22T00:16:26;35.67;;;17.30;;
66437;SDS011;54537;47.972;11.662;2024-03-22T00:18:51;36.28;;;16.88;;
66437;SDS011;54537;47.972;11.662;2024-03-22T00:21:19;34.78;;;16.98;;
66437;SDS011;54537;47.972;11.662;2024-03-22T00:23:46;35.10;;;16.75;;
66437;SDS011;54537;47.972;11.662;2024-03-22T00:26:12;35.75;;;17.00;;
66437;SDS011;54537;47.972;11.662;2024-03-22T00:28:38;37.50;;;17.07;;
66437;SDS011;54537;47.972;11.662;2024-03-22T00:31:04;36.83;;;16.83;;
66437;SDS011;54537;47.972;11.662;2024-03-22T00:33:30;37.67;;;17.17;;
66437;SDS011;54537;47.972;11.662;2024-03-22T00:35:56;35.13;;;16.55;;
66437;SDS011;54537;47.972;11.662;2024-03-22T00:38:23;35.03;;;17.20;;
66437;SDS011;54537;47.972;11.662;2024-03-22T00:40:50;38.75;;;17.88;;
66437;SDS011;54537;47.972;11.662;2024-03-22T00:43:15;37.28;;;16.83;;
66437;SDS011;54537;47.972;11.662;2024-03-22T00:45:42;36.92;;;18.05;;
66437;SDS011;54537;47.972;11.662;2024-03-22T00:48:07;35.87;;;16.73;;
66437;SDS011;54537;47.972;11.662;2024-03-22T00:50:34;39.77;;;18.20;;
66437;SDS011;54537;47.972;11.662;2024-03-22T00:52:59;37.35;;;17.25;;
66437;SDS011;54537;47.972;11.662;2024-03-22T00:55:29;36.80;;;17.45;;
66437;SDS011;54537;47.972;11.662;2024-03-22T00:57:54;38.60;;;17.77;;
66437;SDS011;54537;47.972;11.662;2024-03-22T01:00:21;38.55;;;16.88;;
66437;SDS011;54537;47.972;11.662;2024-03-22T01:02:47;37.77;;;17.70;;
66437;SDS011;54537;47.972;11.662;2024-03-22T01:05:13;35.13;;;16.75;;
66437;SDS011;54537;47.972;11.662;2024-03-22T01:07:39;33.70;;;16.05;;
66437;SDS011;54537;47.972;11.662;2024-03-22T01:10:06;39.22;;;17.45;;
66437;SDS011;54537;47.972;11.662;2024-03-22T01:12:33;36.22;;;17.35;;
66437;SDS011;54537;47.972;11.662;2024-03-22T01:15:00;35.55;;;17.42;;
66437;SDS011;54537;47.972;11.662;2024-03-22T01:17:25;36.07;;;16.50;;
66437;SDS011;54537;47.972;11.662;2024-03-22T01:19:52;38.33;;;16.77;;
66437;SDS011;54537;47.972;11.662;2024-03-22T01:22:17;38.60;;;17.83;;
66437;SDS011;54537;47.972;11.662;2024-03-22T01:24:44;41.90;;;18.25;;
66437;SDS011;54537;47.972;11.662;2024-03-22T01:27:10;39.50;;;18.37;;
66437;SDS011;54537;47.972;11.662;2024-03-22T01:29:38;37.30;;;17.27;;
66437;SDS011;54537;47.972;11.662;2024-03-22T01:32:03;38.20;;;17.10;;
66437;SDS011;54537;47.972;11.662;2024-03-22T01:34:30;40.17;;;17.88;;
66437;SDS011;54537;47.972;11.662;2024-03-22T01:36:55;38.33;;;17.37;;
66437;SDS011;54537;47.972;11.662;2024-03-22T01:39:22;38.07;;;17.93;;
66437;SDS011;54537;47.972;11.662;2024-03-22T01:41:47;36.40;;;17.25;;
66437;SDS011;54537;47.972;11.662;2024-03-22T01:44:14;37.08;;;17.23;;
66437;SDS011;54537;47.972;11.662;2024-03-22T01:46:41;39.97;;;18.63;;
66437;SDS011;54537;47.972;11.662;2024-03-22T01:49:08;36.75;;;17.83;;
66437;SDS011;54537;47.972;11.662;2024-03-22T01:51:34;37.80;;;17.45;;
66437;SDS011;54537;47.972;11.662;2024-03-22T01:54:01;36.60;;;17.20;;
66437;SDS011;54537;47.972;11.662;2024-03-22T01:56:27;39.60;;;17.30;;
66437;SDS011;54537;47.972;11.662;2024-03-22T01:58:54;36.85;;;16.98;;
66437;SDS011;54537;47.972;11.662;2024-03-22T02:01:21;33.20;;;16.53;;
66437;SDS011;54537;47.972;11.662;2024-03-22T02:03:48;37.20;;;16.58;;
66437;SDS011;54537;47.972;11.662;2024-03-22T02:06:14;34.30;;;16.20;;
66437;SDS011;54537;47.972;11.662;2024-03-22T02:08:40;33.38;;;15.50;;
66437;SDS011;54537;47.972;11.662;2024-03-22T02:11:07;33.77;;;15.33;;
66437;SDS011;54537;47.972;11.662;2024-03-22T02:13:34;35.05;;;16.00;;
66437;SDS011;54537;47.972;11.662;2024-03-22T02:16:02;32.33;;;15.45;;
66437;SDS011;54537;47.972;11.662;2024-03-22T02:18:29;32.03;;;15.38;;
66437;SDS011;54537;47.972;11.662;2024-03-22T02:20:56;35.90;;;15.90;;
66437;SDS011;54537;47.972;11.662;2024-03-22T02:23:32;34.47;;;15.82;;
66437;SDS011;54537;47.972;11.662;2024-03-22T02:25:57;31.40;;;15.05;;
66437;SDS011;54537;47.972;11.662;2024-03-22T02:28:24;29.98;;;14.30;;
66437;SDS011;54537;47.972;11.662;2024-03-22T02:30:49;32.07;;;15.17;;
66437;SDS011;54537;47.972;11.662;2024-03-22T02:33:16;31.42;;;15.52;;
66437;SDS011;54537;47.972;11.662;2024-03-22T02:35:41;31.63;;;14.73;;
66437;SDS011;54537;47.972;11.662;2024-03-22T02:38:08;33.70;;;15.13;;
66437;SDS011;54537;47.972;11.662;2024-03-22T02:40:35;29.47;;;14.50;;
66437;SDS011;54537;47.972;11.662;2024-03-22T02:43:01;30.40;;;14.48;;
66437;SDS011;54537;47.972;11.662;2024-03-22T02:45:27;30.23;;;14.10;;
66437;SDS011;54537;47.972;11.662;2024-03-22T02:47:53;30.60;;;14.73;;
66437;SDS011;54537;47.972;11.662;2024-03-22T02:50:19;29.80;;;13.50;;
66437;SDS011;54537;47.972;11.662;2024-03-22T02:52:45;31.40;;;14.57;;
66437;SDS011;54537;47.972;11.662;2024-03-22T02:55:11;29.17;;;14.17;;
66437;SDS011;54537;47.972;11.662;2024-03-22T02:57:39;30.08;;;13.70;;
66437;SDS011;54537;47.972;11.662;2024-03-22T03:00:05;28.40;;;14.15;;
66437;SDS011;54537;47.972;11.662;2024-03-22T03:02:32;33.28;;;14.45;;
66437;SDS011;54537;47.972;11.662;2024-03-22T03:04:58;29.47;;;14.23;;
66437;SDS011;54537;47.972;11.662;2024-03-22T03:07:24;30.48;;;14.32;;
66437;SDS011;54537;47.972;11.662;2024-03-22T03:09:50;32.10;;;14.63;;
66437;SDS011;54537;47.972;11.662;2024-03-22T03:12:16;30.77;;;14.23;;
66437;SDS011;54537;47.972;11.662;2024-03-22T03:14:43;30.65;;;14.23;;
66437;SDS011;54537;47.972;11.662;2024-03-22T03:17:09;28.52;;;13.43;;
66437;SDS011;54537;47.972;11.662;2024-03-22T03:19:35;29.80;;;13.67;;
66437;SDS011;54537;47.972;11.662;2024-03-22T03:22:02;28.27;;;13.68;;
66437;SDS011;54537;47.972;11.662;2024-03-22T03:24:27;28.50;;;13.33;;
66437;SDS011;54537;47.972;11.662;2024-03-22T03:26:54;30.30;;;13.52;;
66437;SDS011;54537;47.972;11.662;2024-03-22T03:29:19;31.23;;;14.02;;
66437;SDS011;54537;47.972;11.662;2024-03-22T03:31:47;28.80;;;13.60;;
66437;SDS011;54537;47.972;11.662;2024-03-22T03:34:13;26.63;;;12.98;;
66437;SDS011;54537;47.972;11.662;2024-03-22T03:36:40;27.40;;;13.05;;
66437;SDS011;54537;47.972;11.662;2024-03-22T03:39:06;26.43;;;12.93;;
66437;SDS011;54537;47.972;11.662;2024-03-22T03:41:32;28.38;;;13.23;;
66437;SDS011;54537;47.972;11.662;2024-03-22T03:43:58;26.90;;;12.55;;
66437;SDS011;54537;47.972;11.662;2024-03-22T03:46:24;24.92;;;12.25;;
66437;SDS011;54537;47.972;11.662;2024-03-22T03:48:51;26.43;;;12.87;;
66437;SDS011;54537;47.972;11.662;2024-03-22T03:51:18;25.58;;;11.90;;
66437;SDS011;54537;47.972;11.662;2024-03-22T03:53:43;23.73;;;11.83;;
66437;SDS011;54537;47.972;11.662;2024-03-22T03:56:10;26.10;;;12.45;;
66437;SDS011;54537;47.972;11.662;2024-03-22T03:58:35;25.33;;;12.53;;
66437;SDS011;54537;47.972;11.662;2024-03-22T04:01:04;25.07;;;12.13;;
66437;SDS011;54537;47.972;11.662;2024-03-22T04:03:30;25.40;;;12.23;;
66437;SDS011;54537;47.972;11.662;2024-03-22T04:05:58;25.55;;;12.25;;
66437;SDS011;54537;47.972;11.662;2024-03-22T04:08:24;23.23;;;11.43;;
66437;SDS011;54537;47.972;11.662;2024-03-22T04:10:51;25.83;;;12.32;;
66437;SDS011;54537;47.972;11.662;2024-03-22T04:13:17;24.83;;;12.30;;
66437;SDS011;54537;47.972;11.662;2024-03-22T04:15:43;24.15;;;12.15;;
66437;SDS011;54537;47.972;11.662;2024-03-22T04:18:09;26.73;;;12.02;;
66437;SDS011;54537;47.972;11.662;2024-03-22T04:20:35;26.63;;;12.50;;
66437;SDS011;54537;47.972;11.662;2024-03-22T04:23:02;27.20;;;12.40;;
66437;SDS011;54537;47.972;11.662;2024-03-22T04:25:29;25.58;;;11.55;;
66437;SDS011;54537;47.972;11.662;2024-03-22T04:27:55;24.27;;;12.05;;
66437;SDS011;54537;47.972;11.662;2024-03-22T04:30:21;24.55;;;11.30;;
66437;SDS011;54537;47.972;11.662;2024-03-22T04:32:47;23.57;;;11.50;;
66437;SDS011;54537;47.972;11.662;2024-03-22T04:35:13;22.70;;;11.50;;
66437;SDS011;54537;47.972;11.662;2024-03-22T04:37:39;22.40;;;11.18;;
66437;SDS011;54537;47.972;11.662;2024-03-22T04:40:07;25.17;;;11.40;;
66437;SDS011;54537;47.972;11.662;2024-03-22T04:42:35;23.07;;;11.27;;
66437;SDS011;54537;47.972;11.662;2024-03-22T04:45:02;22.40;;;11.27;;
66437;SDS011;54537;47.972;11.662;2024-03-22T04:47:29;24.73;;;11.23;;
66437;SDS011;54537;47.972;11.662;2024-03-22T04:49:54;25.38;;;11.20;;
66437;SDS011;54537;47.972;11.662;2024-03-22T04:52:21;21.55;;;10.60;;
66437;SDS011;54537;47.972;11.662;2024-03-22T04:54:47;23.20;;;11.30;;
66437;SDS011;54537;47.972;11.662;2024-03-22T04:57:14;23.67;;;11.23;;
66437;SDS011;54537;47.972;11.662;2024-03-22T04:59:40;22.20;;;10.77;;
66437;SDS011;54537;47.972;11.662;2024-03-22T05:02:06;22.70;;;10.95;;
66437;SDS011;54537;47.972;11.662;2024-03-22T05:04:32;21.53;;;10.80;;
66437;SDS011;54537;47.972;11.662;2024-03-22T05:06:58;20.38;;;10.10;;
66437;SDS011;54537;47.972;11.662;2024-03-22T05:09:24;23.27;;;10.87;;
66437;SDS011;54537;47.972;11.662;2024-03-22T05:11:50;21.15;;;10.38;;
66437;SDS011;54537;47.972;11.662;2024-03-22T05:14:18;21.60;;;10.27;;
66437;SDS011;54537;47.972;11.662;2024-03-22T05:16:45;20.33;;;10.05;;
66437;SDS011;54537;47.972;11.662;2024-03-22T05:19:11;21.33;;;10.32;;
66437;SDS011;54537;47.972;11.662;2024-03-22T05:21:37;21.02;;;9.82;;
66437;SDS011;54537;47.972;11.662;2024-03-22T05:24:03;23.63;;;10.27;;
66437;SDS011;54537;47.972;11.662;2024-03-22T05:26:30;21.58;;;10.40;;
66437;SDS011;54537;47.972;11.662;2024-03-22T05:29:00;21.27;;;10.38;;
66437;SDS011;54537;47.972;11.662;2024-03-22T05:31:29;19.60;;;10.30;;
66437;SDS011;54537;47.972;11.662;2024-03-22T05:33:54;21.65;;;10.43;;
66437;SDS011;54537;47.972;11.662;2024-03-22T05:36:21;21.10;;;10.13;;
66437;SDS011;54537;47.972;11.662;2024-03-22T05:38:46;20.80;;;10.20;;
66437;SDS011;54537;47.972;11.662;2024-03-22T05:41:13;19.10;;;10.20;;
66437;SDS011;54537;47.972;11.662;2024-03-22T05:43:38;19.87;;;9.53;;
66437;SDS011;54537;47.972;11.662;2024-03-22T05:46:05;20.52;;;10.00;;
66437;SDS011;54537;47.972;11.662;2024-03-22T05:48:31;20.03;;;9.87;;
66437;SDS011;54537;47.972;11.662;2024-03-22T05:50:58;20.33;;;9.82;;
66437;SDS011;54537;47.972;11.662;2024-03-22T05:53:23;20.33;;;10.10;;
66437;SDS011;54537;47.972;11.662;2024-03-22T05:55:50;21.80;;;9.77;;
66437;SDS011;54537;47.972;11.662;2024-03-22T05:58:15;19.40;;;9.75;;
66437;SDS011;54537;47.972;11.662;2024-03-22T06:00:42;19.33;;;9.93;;
66437;SDS011;54537;47.972;11.662;2024-03-22T06:03:08;22.27;;;10.55;;
66437;SDS011;54537;47.972;11.662;2024-03-22T06:05:36;20.85;;;9.73;;
66437;SDS011;54537;47.972;11.662;2024-03-22T06:08:03;19.60;;;10.02;;
66437;SDS011;54537;47.972;11.662;2024-03-22T06:10:31;21.25;;;10.85;;
66437;SDS011;54537;47.972;11.662;2024-03-22T06:12:57;22.17;;;10.70;;
66437;SDS011;54537;47.972;11.662;2024-03-22T06:15:23;22.25;;;10.32;;
66437;SDS011;54537;47.972;11.662;2024-03-22T06:17:49;20.02;;;10.13;;
66437;SDS011;54537;47.972;11.662;2024-03-22T06:20:16;21.73;;;9.90;;
66437;SDS011;54537;47.972;11.662;2024-03-22T06:22:43;20.38;;;10.40;;
66437;SDS011;54537;47.972;11.662;2024-03-22T06:25:09;19.17;;;9.93;;
66437;SDS011;54537;47.972;11.662;2024-03-22T06:27:35;18.73;;;9.45;;
66437;SDS011;54537;47.972;11.662;2024-03-22T06:30:01;17.88;;;9.43;;
66437;SDS011;54537;47.972;11.662;2024-03-22T06:32:27;18.63;;;9.30;;
66437;SDS011;54537;47.972;11.662;2024-03-22T06:34:53;20.53;;;9.53;;
66437;SDS011;54537;47.972;11.662;2024-03-22T06:37:19;18.67;;;9.48;;
66437;SDS011;54537;47.972;11.662;2024-03-22T06:39:47;19.13;;;9.05;;
66437;SDS011;54537;47.972;11.662;2024-03-22T06:42:12;16.50;;;9.23;;
66437;SDS011;54537;47.972;11.662;2024-03-22T06:44:39;17.55;;;9.00;;
66437;SDS011;54537;47.972;11.662;2024-03-22T06:47:04;15.87;;;8.77;;
66437;SDS011;54537;47.972;11.662;2024-03-22T06:49:31;20.10;;;9.03;;
66437;SDS011;54537;47.972;11.662;2024-03-22T06:51:56;17.67;;;9.30;;
66437;SDS011;54537;47.972;11.662;2024-03-22T06:54:23;16.48;;;9.15;;
66437;SDS011;54537;47.972;11.662;2024-03-22T06:56:50;17.07;;;8.80;;
66437;SDS011;54537;47.972;11.662;2024-03-22T06:59:16;19.52;;;9.15;;
66437;SDS011;54537;47.972;11.662;2024-03-22T07:01:42;19.03;;;8.90;;
66437;SDS011;54537;47.972;11.662;2024-03-22T07:04:08;15.93;;;8.70;;
66437;SDS011;54537;47.972;11.662;2024-03-22T07:06:34;18.00;;;9.43;;
66437;SDS011;54537;47.972;11.662;2024-03-22T07:09:00;16.02;;;8.75;;
66437;SDS011;54537;47.972;11.662;2024-03-22T07:11:26;14.23;;;8.17;;
66437;SDS011;54537;47.972;11.662;2024-03-22T07:13:54;13.45;;;7.60;;
66437;SDS011;54537;47.972;11.662;2024-03-22T07:16:19;13.38;;;7.40;;
66437;SDS011;54537;47.972;11.662;2024-03-22T07:18:46;14.27;;;7.45;;
66437;SDS011;54537;47.972;11.662;2024-03-22T07:21:13;12.10;;;7.20;;
66437;SDS011;54537;47.972;11.662;2024-03-22T07:23:40;13.07;;;6.97;;
66437;SDS011;54537;47.972;11.662;2024-03-22T07:26:05;15.23;;;7.20;;
66437;SDS011;54537;47.972;11.662;2024-03-22T07:28:33;13.15;;;6.53;;
66437;SDS011;54537;47.972;11.662;2024-03-22T07:31:00;12.50;;;6.78;;
66437;SDS011;54537;47.972;11.662;2024-03-22T07:33:26;12.20;;;6.63;;
66437;SDS011;54537;47.972;11.662;2024-03-22T07:35:53;11.80;;;6.40;;
66437;SDS011;54537;47.972;11.662;2024-03-22T07:38:19;11.77;;;6.37;;
66437;SDS011;54537;47.972;11.662;2024-03-22T07:40:46;11.68;;;6.75;;
66437;SDS011;54537;47.972;11.662;2024-03-22T07:43:11;10.70;;;6.47;;
66437;SDS011;54537;47.972;11.662;2024-03-22T07:45:39;10.02;;;5.72;;
66437;SDS011;54537;47.972;11.662;2024-03-22T07:48:07;10.73;;;5.70;;
66437;SDS011;54537;47.972;11.662;2024-03-22T07:50:33;11.20;;;5.75;;
66437;SDS011;54537;47.972;11.662;2024-03-22T07:52:59;12.37;;;6.00;;
66437;SDS011;54537;47.972;11.662;2024-03-22T07:55:25;10.77;;;5.75;;
66437;SDS011;54537;47.972;11.662;2024-03-22T07:57:50;9.90;;;5.63;;
66437;SDS011;54537;47.972;11.662;2024-03-22T08:00:17;11.10;;;5.60;;
66437;SDS011;54537;47.972;11.662;2024-03-22T08:02:43;12.93;;;6.10;;
66437;SDS011;54537;47.972;11.662;2024-03-22T08:05:11;9.63;;;5.32;;
66437;SDS011;54537;47.972;11.662;2024-03-22T08:07:36;9.35;;;5.10;;
66437;SDS011;54537;47.972;11.662;2024-03-22T08:10:03;9.05;;;5.40;;
66437;SDS011;54537;47.972;11.662;2024-03-22T08:12:29;10.85;;;5.05;;
66437;SDS011;54537;47.972;11.662;2024-03-22T08:14:56;8.60;;;4.65;;
66437;SDS011;54537;47.972;11.662;2024-03-22T08:17:21;8.47;;;5.00;;
66437;SDS011;54537;47.972;11.662;2024-03-22T08:19:48;9.20;;;4.70;;
66437;SDS011;54537;47.972;11.662;2024-03-22T08:22:14;9.32;;;4.88;;
66437;SDS011;54537;47.972;11.662;2024-03-22T08:24:41;8.55;;;4.70;;
66437;SDS011;54537;47.972;11.662;2024-03-22T08:27:06;10.70;;;4.73;;
66437;SDS011;54537;47.972;11.662;2024-03-22T08:29:33;8.88;;;4.80;;
66437;SDS011;54537;47.972;11.662;2024-03-22T08:31:58;8.33;;;4.60;;
66437;SDS011;54537;47.972;11.662;2024-03-22T08:34:27;7.95;;;4.50;;
66437;SDS011;54537;47.972;11.662;2024-03-22T08:36:53;9.70;;;4.80;;
66437;SDS011;54537;47.972;11.662;2024-03-22T08:39:21;11.52;;;4.75;;
66437;SDS011;54537;47.972;11.662;2024-03-22T08:41:47;8.45;;;4.40;;
66437;SDS011;54537;47.972;11.662;2024-03-22T08:44:13;9.05;;;4.30;;
66437;SDS011;54537;47.972;11.662;2024-03-22T08:46:39;8.82;;;4.18;;
66437;SDS011;54537;47.972;11.662;2024-03-22T08:49:05;5.85;;;3.30;;
66437;SDS011;54537;47.972;11.662;2024-03-22T08:51:30;5.65;;;3.33;;
66437;SDS011;54537;47.972;11.662;2024-03-22T08:53:57;5.95;;;2.97;;
66437;SDS011;54537;47.972;11.662;2024-03-22T08:56:24;6.72;;;3.10;;
66437;SDS011;54537;47.972;11.662;2024-03-22T08:58:50;4.25;;;2.40;;
66437;SDS011;54537;47.972;11.662;2024-03-22T09:01:16;5.75;;;3.17;;
66437;SDS011;54537;47.972;11.662;2024-03-22T09:03:42;4.30;;;2.25;;
66437;SDS011;54537;47.972;11.662;2024-03-22T09:06:11;5.95;;;2.80;;
66437;SDS011;54537;47.972;11.662;2024-03-22T09:08:37;4.65;;;2.60;;
66437;SDS011;54537;47.972;11.662;2024-03-22T09:11:03;7.80;;;2.72;;
66437;SDS011;54537;47.972;11.662;2024-03-22T09:13:31;5.00;;;2.45;;
66437;SDS011;54537;47.972;11.662;2024-03-22T09:15:59;4.50;;;2.28;;
66437;SDS011;54537;47.972;11.662;2024-03-22T09:18:26;8.00;;;2.60;;
66437;SDS011;54537;47.972;11.662;2024-03-22T09:20:51;5.20;;;2.60;;
66437;SDS011;54537;47.972;11.662;2024-03-22T09:23:18;7.80;;;2.70;;
66437;SDS011;54537;47.972;11.662;2024-03-22T09:25:44;7.40;;;2.47;;
66437;SDS011;54537;47.972;11.662;2024-03-22T09:28:12;7.25;;;2.45;;
66437;SDS011;54537;47.972;11.662;2024-03-22T09:30:39;5.85;;;2.72;;
66437;SDS011;54537;47.972;11.662;2024-03-22T09:33:06;6.28;;;2.30;;
66437;SDS011;54537;47.972;11.662;2024-03-22T09:35:32;5.00;;;2.50;;
66437;SDS011;54537;47.972;11.662;2024-03-22T09:37:59;5.18;;;2.40;;
66437;SDS011;54537;47.972;11.662;2024-03-22T09:40:25;6.57;;;2.83;;
66437;SDS011;54537;47.972;11.662;2024-03-22T09:42:52;5.40;;;2.80;;
66437;SDS011;54537;47.972;11.662;2024-03-22T09:45:18;4.95;;;2.58;;
66437;SDS011;54537;47.972;11.662;2024-03-22T09:47:47;5.32;;;2.60;;
66437;SDS011;54537;47.972;11.662;2024-03-22T09:50:13;6.43;;;2.55;;
66437;SDS011;54537;47.972;11.662;2024-03-22T09:52:41;5.82;;;2.75;;
66437;SDS011;54537;47.972;11.662;2024-03-22T09:55:07;5.97;;;2.50;;
66437;SDS011;54537;47.972;11.662;2024-03-22T09:57:35;5.75;;;2.40;;
66437;SDS011;54537;47.972;11.662;2024-03-22T10:00:04;3.58;;;2.20;;
66437;SDS011;54537;47.972;11.662;2024-03-22T10:02:33;6.25;;;2.50;;
66437;SDS011;54537;47.972;11.662;2024-03-22T10:05:00;5.07;;;2.45;;
66437;SDS011;54537;47.972;11.662;2024-03-22T10:07:28;7.28;;;2.72;;
66437;SDS011;54537;47.972;11.662;2024-03-22T10:09:57;5.45;;;2.67;;
66437;SDS011;54537;47.972;11.662;2024-03-22T10:12:23;5.53;;;2.80;;
66437;SDS011;54537;47.972;11.662;2024-03-22T10:14:50;6.40;;;2.67;;
66437;SDS011;54537;47.972;11.662;2024-03-22T10:17:18;4.25;;;2.47;;
66437;SDS011;54537;47.972;11.662;2024-03-22T10:19:44;7.68;;;3.20;;
66437;SDS011;54537;47.972;11.662;2024-03-22T10:22:11;5.70;;;2.50;;
66437;SDS011;54537;47.972;11.662;2024-03-22T10:24:37;4.68;;;2.50;;
66437;SDS011;54537;47.972;11.662;2024-03-22T10:27:04;6.93;;;2.97;;
66437;SDS011;54537;47.972;11.662;2024-03-22T10:29:29;4.75;;;2.50;;
66437;SDS011;54537;47.972;11.662;2024-03-22T10:31:56;4.57;;;2.20;;
66437;SDS011;54537;47.972;11.662;2024-03-22T10:34:22;6.38;;;2.65;;
66437;SDS011;54537;47.972;11.662;2024-03-22T10:36:48;4.85;;;2.22;;
66437;SDS011;54537;47.972;11.662;2024-03-22T10:39:16;4.78;;;2.47;;
66437;SDS011;54537;47.972;11.662;2024-03-22T10:41:43;5.78;;;2.60;;
66437;SDS011;54537;47.972;11.662;2024-03-22T10:44:09;4.85;;;2.20;;
66437;SDS011;54537;47.972;11.662;2024-03-22T10:46:35;7.85;;;2.72;;
66437;SDS011;54537;47.972;11.662;2024-03-22T10:49:02;5.60;;;2.80;;
66437;SDS011;54537;47.972;11.662;2024-03-22T10:51:29;4.30;;;2.25;;
66437;SDS011;54537;47.972;11.662;2024-03-22T10:53:55;4.60;;;2.40;;
66437;SDS011;54537;47.972;11.662;2024-03-22T10:56:24;4.03;;;2.20;;
66437;SDS011;54537;47.972;11.662;2024-03-22T10:58:51;4.93;;;2.08;;
66437;SDS011;54537;47.972;11.662;2024-03-22T11:01:21;5.60;;;2.10;;
66437;SDS011;54537;47.972;11.662;2024-03-22T11:03:47;4.35;;;2.20;;
66437;SDS011;54537;47.972;11.662;2024-03-22T11:06:17;4.55;;;1.90;;
66437;SDS011;54537;47.972;11.662;2024-03-22T11:08:43;5.78;;;2.10;;
66437;SDS011;54537;47.972;11.662;2024-03-22T11:11:11;6.63;;;2.20;;
66437;SDS011;54537;47.972;11.662;2024-03-22T11:13:39;6.75;;;1.98;;
66437;SDS011;54537;47.972;11.662;2024-03-22T11:16:05;3.50;;;1.90;;
66437;SDS011;54537;47.972;11.662;2024-03-22T11:18:33;2.50;;;1.70;;
66437;SDS011;54537;47.972;11.662;2024-03-22T11:20:59;4.13;;;1.67;;
66437;SDS011;54537;47.972;11.662;2024-03-22T11:23:25;4.40;;;1.80;;
66437;SDS011;54537;47.972;11.662;2024-03-22T11:25:51;3.40;;;1.90;;
66437;SDS011;54537;47.972;11.662;2024-03-22T11:28:17;5.03;;;1.65;;
66437;SDS011;54537;47.972;11.662;2024-03-22T11:30:46;6.05;;;1.88;;
66437;SDS011;54537;47.972;11.662;2024-03-22T11:33:11;4.38;;;1.70;;
66437;SDS011;54537;47.972;11.662;2024-03-22T11:35:38;3.88;;;1.70;;
66437;SDS011;54537;47.972;11.662;2024-03-22T11:38:04;3.90;;;1.60;;
66437;SDS011;54537;47.972;11.662;2024-03-22T11:40:30;3.25;;;1.70;;
66437;SDS011;54537;47.972;11.662;2024-03-22T11:42:56;3.45;;;1.95;;
66437;SDS011;54537;47.972;11.662;2024-03-22T11:45:24;3.40;;;1.63;;
66437;SDS011;54537;47.972;11.662;2024-03-22T11:47:52;3.88;;;1.88;;
66437;SDS011;54537;47.972;11.662;2024-03-22T11:50:19;4.35;;;1.80;;
66437;SDS011;54537;47.972;11.662;2024-03-22T11:52:44;3.00;;;1.60;;
66437;SDS011;54537;47.972;11.662;2024-03-22T11:55:12;2.42;;;1.63;;
66437;SDS011;54537;47.972;11.662;2024-03-22T11:57:38;2.55;;;1.67;;
66437;SDS011;54537;47.972;11.662;2024-03-22T12:00:05;3.47;;;1.40;;
66437;SDS011;54537;47.972;11.662;2024-03-22T12:02:34;6.38;;;1.65;;
66437;SDS011;54537;47.972;11.662;2024-03-22T12:05:03;2.90;;;1.48;;
66437;SDS011;54537;47.972;11.662;2024-03-22T12:07:30;2.58;;;1.45;;
66437;SDS011;54537;47.972;11.662;2024-03-22T12:09:57;3.67;;;1.52;;
66437;SDS011;54537;47.972;11.662;2024-03-22T12:12:23;3.60;;;1.60;;
66437;SDS011;54537;47.972;11.662;2024-03-22T12:14:49;4.53;;;1.70;;
66437;SDS011;54537;47.972;11.662;2024-03-22T12:17:16;4.82;;;1.60;;
66437;SDS011;54537;47.972;11.662;2024-03-22T12:19:43;4.25;;;1.88;;
66437;SDS011;54537;47.972;11.662;2024-03-22T12:22:10;4.15;;;1.60;;
66437;SDS011;54537;47.972;11.662;2024-03-22T12:24:36;3.53;;;1.67;;
66437;SDS011;54537;47.972;11.662;2024-03-22T12:27:02;5.80;;;1.90;;
66437;SDS011;54537;47.972;11.662;2024-03-22T12:29:29;2.72;;;1.70;;
66437;SDS011;54537;47.972;11.662;2024-03-22T12:31:54;3.80;;;1.70;;
66437;SDS011;54537;47.972;11.662;2024-03-22T12:34:21;3.15;;;1.60;;
66437;SDS011;54537;47.972;11.662;2024-03-22T12:36:46;3.65;;;1.50;;
66437;SDS011;54537;47.972;11.662;2024-03-22T12:39:15;2.83;;;1.50;;
66437;SDS011;54537;47.972;11.662;2024-03-22T12:41:41;4.65;;;1.60;;
66437;SDS011;54537;47.972;11.662;2024-03-22T12:44:08;4.25;;;1.55;;
66437;SDS011;54537;47.972;11.662;2024-03-22T12:46:34;3.47;;;1.67;;
66437;SDS011;54537;47.972;11.662;2024-03-22T12:49:00;2.53;;;1.75;;
66437;SDS011;54537;47.972;11.662;2024-03-22T12:51:26;5.13;;;1.92;;
66437;SDS011;54537;47.972;11.662;2024-03-22T12:53:52;5.45;;;2.30;;
66437;SDS011;54537;47.972;11.662;2024-03-22T12:56:19;4.32;;;1.75;;
66437;SDS011;54537;47.972;11.662;2024-03-22T12:58:46;3.92;;;1.50;;
66437;SDS011;54537;47.972;11.662;2024-03-22T13:01:13;4.20;;;2.05;;
66437;SDS011;54537;47.972;11.662;2024-03-22T13:03:39;3.08;;;1.90;;
66437;SDS011;54537;47.972;11.662;2024-03-22T13:06:05;5.88;;;2.00;;
66437;SDS011;54537;47.972;11.662;2024-03-22T13:08:31;4.50;;;1.98;;
66437;SDS011;54537;47.972;11.662;2024-03-22T13:10:57;3.25;;;1.45;;
66437;SDS011;54537;47.972;11.662;2024-03-22T13:13:24;4.13;;;2.05;;
66437;SDS011;54537;47.972;11.662;2024-03-22T13:15:51;4.55;;;1.90;;
66437;SDS011;54537;47.972;11.662;2024-03-22T13:18:16;4.00;;;2.20;;
66437;SDS011;54537;47.972;11.662;2024-03-22T13:20:43;3.65;;;1.55;;
66437;SDS011;54537;47.972;11.662;2024-03-22T13:23:08;3.33;;;1.65;;
66437;SDS011;54537;47.972;11.662;2024-03-22T13:25:36;4.90;;;1.92;;
66437;SDS011;54537;47.972;11.662;2024-03-22T13:28:02;4.57;;;1.85;;
66437;SDS011;54537;47.972;11.662;2024-03-22T13:30:31;4.53;;;1.83;;
66437;SDS011;54537;47.972;11.662;2024-03-22T13:32:57;2.80;;;1.70;;
66437;SDS011;54537;47.972;11.662;2024-03-22T13:35:24;5.18;;;1.67;;
66437;SDS011;54537;47.972;11.662;2024-03-22T13:37:50;3.22;;;1.73;;
66437;SDS011;54537;47.972;11.662;2024-03-22T13:40:16;2.35;;;1.50;;
66437;SDS011;54537;47.972;11.662;2024-03-22T13:42:42;4.72;;;2.03;;
66437;SDS011;54537;47.972;11.662;2024-03-22T13:45:09;4.30;;;2.05;;
66437;SDS011;54537;47.972;11.662;2024-03-22T13:47:36;3.40;;;2.00;;
66437;SDS011;54537;47.972;11.662;2024-03-22T13:50:05;5.13;;;2.17;;
66437;SDS011;54537;47.972;11.662;2024-03-22T13:52:31;4.72;;;1.80;;
66437;SDS011;54537;47.972;11.662;2024-03-22T13:54:58;3.03;;;1.58;;
66437;SDS011;54537;47.972;11.662;2024-03-22T13:57:24;4.55;;;1.80;;
66437;SDS011;54537;47.972;11.662;2024-03-22T13:59:51;3.90;;;1.75;;
66437;SDS011;54537;47.972;11.662;2024-03-22T14:02:16;5.40;;;1.60;;
66437;SDS011;54537;47.972;11.662;2024-03-22T14:04:44;4.25;;;1.65;;
66437;SDS011;54537;47.972;11.662;2024-03-22T14:07:10;4.55;;;1.80;;
66437;SDS011;54537;47.972;11.662;2024-03-22T14:09:36;4.70;;;1.70;;
66437;SDS011;54537;47.972;11.662;2024-03-22T14:12:02;3.85;;;1.75;;
66437;SDS011;54537;47.972;11.662;2024-03-22T14:14:29;3.25;;;1.60;;
66437;SDS011;54537;47.972;11.662;2024-03-22T14:16:54;4.20;;;1.40;;
